sensor_id;sensor_type;location;lat;lon;timestamp;temperature;humidity
15844;DHT22;50807;52.436;13.346;2022-07-23T00:00:26;23.20;67.80
15844;DHT22;50807;52.436;13.346;2022-07-23T00:00:57;23.20;67.90
15844;DHT22;50807;52.436;13.346;2022-07-23T00:01:29;23.20;67.80
15844;DHT22;50807;52.436;13.346;2022-07-23T00:02:00;23.20;67.80
15844;DHT22;50807;52.436;13.346;2022-07-23T00:02:30;23.20;67.80
15844;DHT22;50807;52.436;13.346;2022-07-23T00:03:02;23.20;67.90
15844;DHT22;50807;52.436;13.346;2022-07-23T00:03:33;23.20;67.90
15844;DHT22;50807;52.436;13.346;2022-07-23T00:04:04;23.20;67.90
15844;DHT22;50807;52.436;13.346;2022-07-23T00:04:35;23.20;67.90
15844;DHT22;50807;52.436;13.346;2022-07-23T00:05:07;23.20;67.90
15844;DHT22;50807;52.436;13.346;2022-07-23T00:05:39;23.20;68.00
15844;DHT22;50807;52.436;13.346;2022-07-23T00:06:11;23.10;67.90
15844;DHT22;50807;52.436;13.346;2022-07-23T00:06:42;23.10;67.90
15844;DHT22;50807;52.436;13.346;2022-07-23T00:07:13;23.10;68.00
15844;DHT22;50807;52.436;13.346;2022-07-23T00:07:44;23.10;68.00
15844;DHT22;50807;52.436;13.346;2022-07-23T00:08:15;23.20;68.10
15844;DHT22;50807;52.436;13.346;2022-07-23T00:08:47;23.10;68.00
15844;DHT22;50807;52.436;13.346;2022-07-23T00:09:18;23.10;68.00
15844;DHT22;50807;52.436;13.346;2022-07-23T00:09:49;23.10;68.00
15844;DHT22;50807;52.436;13.346;2022-07-23T00:10:20;23.10;68.10
15844;DHT22;50807;52.436;13.346;2022-07-23T00:10:51;23.10;68.10
15844;DHT22;50807;52.436;13.346;2022-07-23T00:11:22;23.10;68.10
15844;DHT22;50807;52.436;13.346;2022-07-23T00:11:54;23.10;68.10
15844;DHT22;50807;52.436;13.346;2022-07-23T00:12:24;23.10;68.10
15844;DHT22;50807;52.436;13.346;2022-07-23T00:12:55;23.10;68.10
15844;DHT22;50807;52.436;13.346;2022-07-23T00:13:27;23.10;68.20
15844;DHT22;50807;52.436;13.346;2022-07-23T00:13:58;23.10;68.20
15844;DHT22;50807;52.436;13.346;2022-07-23T00:14:29;23.10;68.20
15844;DHT22;50807;52.436;13.346;2022-07-23T00:15:01;23.10;68.20
15844;DHT22;50807;52.436;13.346;2022-07-23T00:15:32;23.10;68.20
15844;DHT22;50807;52.436;13.346;2022-07-23T00:16:04;23.10;68.20
15844;DHT22;50807;52.436;13.346;2022-07-23T00:16:36;23.10;68.20
15844;DHT22;50807;52.436;13.346;2022-07-23T00:17:06;23.10;68.20
15844;DHT22;50807;52.436;13.346;2022-07-23T00:17:37;23.00;68.20
15844;DHT22;50807;52.436;13.346;2022-07-23T00:18:09;23.10;68.20
15844;DHT22;50807;52.436;13.346;2022-07-23T00:18:40;23.00;68.20
15844;DHT22;50807;52.436;13.346;2022-07-23T00:19:11;23.00;68.20
15844;DHT22;50807;52.436;13.346;2022-07-23T00:19:42;23.00;68.20
15844;DHT22;50807;52.436;13.346;2022-07-23T00:20:13;23.00;68.20
15844;DHT22;50807;52.436;13.346;2022-07-23T00:20:46;23.00;68.20
15844;DHT22;50807;52.436;13.346;2022-07-23T00:21:17;23.00;68.30
15844;DHT22;50807;52.436;13.346;2022-07-23T00:21:48;23.00;68.30
15844;DHT22;50807;52.436;13.346;2022-07-23T00:22:19;23.00;68.30
15844;DHT22;50807;52.436;13.346;2022-07-23T00:22:52;23.00;68.20
15844;DHT22;50807;52.436;13.346;2022-07-23T00:23:25;23.00;68.30
15844;DHT22;50807;52.436;13.346;2022-07-23T00:23:56;23.00;68.30
15844;DHT22;50807;52.436;13.346;2022-07-23T00:24:28;23.00;68.20
15844;DHT22;50807;52.436;13.346;2022-07-23T00:24:59;23.00;68.20
15844;DHT22;50807;52.436;13.346;2022-07-23T00:25:30;23.00;68.20
15844;DHT22;50807;52.436;13.346;2022-07-23T00:26:01;23.00;69.00
15844;DHT22;50807;52.436;13.346;2022-07-23T00:26:32;23.00;68.30
15844;DHT22;50807;52.436;13.346;2022-07-23T00:27:03;22.90;68.20
15844;DHT22;50807;52.436;13.346;2022-07-23T00:27:34;22.90;68.20
15844;DHT22;50807;52.436;13.346;2022-07-23T00:28:06;22.90;68.20
15844;DHT22;50807;52.436;13.346;2022-07-23T00:28:36;22.90;68.20
15844;DHT22;50807;52.436;13.346;2022-07-23T00:29:07;22.90;68.30
15844;DHT22;50807;52.436;13.346;2022-07-23T00:29:39;22.90;68.30
15844;DHT22;50807;52.436;13.346;2022-07-23T00:30:11;22.90;68.30
15844;DHT22;50807;52.436;13.346;2022-07-23T00:30:43;22.90;68.30
15844;DHT22;50807;52.436;13.346;2022-07-23T00:31:14;22.90;68.30
15844;DHT22;50807;52.436;13.346;2022-07-23T00:31:45;22.90;68.30
15844;DHT22;50807;52.436;13.346;2022-07-23T00:32:16;22.90;68.30
15844;DHT22;50807;52.436;13.346;2022-07-23T00:32:49;22.90;68.30
15844;DHT22;50807;52.436;13.346;2022-07-23T00:33:21;22.90;68.40
15844;DHT22;50807;52.436;13.346;2022-07-23T00:33:51;22.90;68.40
15844;DHT22;50807;52.436;13.346;2022-07-23T00:34:27;22.90;68.40
15844;DHT22;50807;52.436;13.346;2022-07-23T00:34:57;22.90;68.40
15844;DHT22;50807;52.436;13.346;2022-07-23T00:35:31;23.00;68.40
15844;DHT22;50807;52.436;13.346;2022-07-23T00:36:09;23.00;69.20
15844;DHT22;50807;52.436;13.346;2022-07-23T00:36:40;23.00;68.40
15844;DHT22;50807;52.436;13.346;2022-07-23T00:37:11;23.00;68.40
15844;DHT22;50807;52.436;13.346;2022-07-23T00:37:42;23.00;68.50
15844;DHT22;50807;52.436;13.346;2022-07-23T00:38:13;23.00;68.40
15844;DHT22;50807;52.436;13.346;2022-07-23T00:38:45;23.00;68.50
15844;DHT22;50807;52.436;13.346;2022-07-23T00:39:15;23.00;68.40
15844;DHT22;50807;52.436;13.346;2022-07-23T00:39:46;23.00;68.40
15844;DHT22;50807;52.436;13.346;2022-07-23T00:40:18;23.00;68.40
15844;DHT22;50807;52.436;13.346;2022-07-23T00:40:48;23.00;68.40
15844;DHT22;50807;52.436;13.346;2022-07-23T00:41:19;23.00;69.20
15844;DHT22;50807;52.436;13.346;2022-07-23T00:41:51;23.00;68.40
15844;DHT22;50807;52.436;13.346;2022-07-23T00:42:22;23.10;68.50
15844;DHT22;50807;52.436;13.346;2022-07-23T00:42:52;23.10;68.50
15844;DHT22;50807;52.436;13.346;2022-07-23T00:43:24;23.10;68.50
15844;DHT22;50807;52.436;13.346;2022-07-23T00:44:10;23.10;68.50
15844;DHT22;50807;52.436;13.346;2022-07-23T00:44:44;23.10;68.40
15844;DHT22;50807;52.436;13.346;2022-07-23T00:45:18;23.10;68.40
15844;DHT22;50807;52.436;13.346;2022-07-23T00:45:49;23.10;68.30
15844;DHT22;50807;52.436;13.346;2022-07-23T00:46:20;23.10;68.30
15844;DHT22;50807;52.436;13.346;2022-07-23T00:46:54;23.10;68.20
15844;DHT22;50807;52.436;13.346;2022-07-23T00:47:26;23.10;68.30
15844;DHT22;50807;52.436;13.346;2022-07-23T00:47:57;23.10;68.20
15844;DHT22;50807;52.436;13.346;2022-07-23T00:48:28;23.10;68.20
15844;DHT22;50807;52.436;13.346;2022-07-23T00:49:00;23.10;68.20
15844;DHT22;50807;52.436;13.346;2022-07-23T00:49:31;23.10;68.20
15844;DHT22;50807;52.436;13.346;2022-07-23T00:50:03;23.10;68.20
15844;DHT22;50807;52.436;13.346;2022-07-23T00:50:36;23.10;68.20
15844;DHT22;50807;52.436;13.346;2022-07-23T00:51:08;23.10;68.20
15844;DHT22;50807;52.436;13.346;2022-07-23T00:51:39;23.10;68.10
15844;DHT22;50807;52.436;13.346;2022-07-23T00:52:11;23.10;68.10
15844;DHT22;50807;52.436;13.346;2022-07-23T00:52:42;23.10;68.10
15844;DHT22;50807;52.436;13.346;2022-07-23T00:53:13;23.10;68.10
15844;DHT22;50807;52.436;13.346;2022-07-23T00:53:46;23.10;68.10
15844;DHT22;50807;52.436;13.346;2022-07-23T00:54:18;23.10;68.10
15844;DHT22;50807;52.436;13.346;2022-07-23T00:54:50;23.10;68.10
15844;DHT22;50807;52.436;13.346;2022-07-23T00:55:21;23.10;68.10
15844;DHT22;50807;52.436;13.346;2022-07-23T00:55:53;23.10;68.10
15844;DHT22;50807;52.436;13.346;2022-07-23T00:56:24;23.10;68.10
15844;DHT22;50807;52.436;13.346;2022-07-23T00:56:55;23.10;68.10
15844;DHT22;50807;52.436;13.346;2022-07-23T00:57:27;23.10;68.10
15844;DHT22;50807;52.436;13.346;2022-07-23T00:57:58;23.10;68.10
15844;DHT22;50807;52.436;13.346;2022-07-23T00:58:29;23.00;68.00
15844;DHT22;50807;52.436;13.346;2022-07-23T00:59:02;23.10;68.20
15844;DHT22;50807;52.436;13.346;2022-07-23T00:59:33;23.10;68.10
15844;DHT22;50807;52.436;13.346;2022-07-23T01:00:05;23.10;68.20
15844;DHT22;50807;52.436;13.346;2022-07-23T01:00:39;23.10;68.20
15844;DHT22;50807;52.436;13.346;2022-07-23T01:01:11;23.10;68.10
15844;DHT22;50807;52.436;13.346;2022-07-23T01:01:42;23.10;68.10
15844;DHT22;50807;52.436;13.346;2022-07-23T01:02:15;23.10;68.20
15844;DHT22;50807;52.436;13.346;2022-07-23T01:02:46;23.10;68.10
15844;DHT22;50807;52.436;13.346;2022-07-23T01:03:17;23.10;68.10
15844;DHT22;50807;52.436;13.346;2022-07-23T01:03:49;23.10;68.10
15844;DHT22;50807;52.436;13.346;2022-07-23T01:04:20;23.00;68.10
15844;DHT22;50807;52.436;13.346;2022-07-23T01:04:50;23.10;68.20
15844;DHT22;50807;52.436;13.346;2022-07-23T01:05:22;23.10;68.10
15844;DHT22;50807;52.436;13.346;2022-07-23T01:05:54;23.10;68.10
15844;DHT22;50807;52.436;13.346;2022-07-23T01:06:26;23.10;68.10
15844;DHT22;50807;52.436;13.346;2022-07-23T01:06:57;23.10;68.10
15844;DHT22;50807;52.436;13.346;2022-07-23T01:07:29;23.10;68.10
15844;DHT22;50807;52.436;13.346;2022-07-23T01:08:01;23.10;68.10
15844;DHT22;50807;52.436;13.346;2022-07-23T01:08:31;23.10;68.10
15844;DHT22;50807;52.436;13.346;2022-07-23T01:09:04;23.10;68.10
15844;DHT22;50807;52.436;13.346;2022-07-23T01:09:36;23.10;68.10
15844;DHT22;50807;52.436;13.346;2022-07-23T01:10:08;23.10;68.10
15844;DHT22;50807;52.436;13.346;2022-07-23T01:10:54;23.10;68.10
15844;DHT22;50807;52.436;13.346;2022-07-23T01:11:26;23.10;68.00
15844;DHT22;50807;52.436;13.346;2022-07-23T01:11:59;23.10;68.00
15844;DHT22;50807;52.436;13.346;2022-07-23T01:12:30;23.10;68.00
15844;DHT22;50807;52.436;13.346;2022-07-23T01:13:04;23.10;67.90
15844;DHT22;50807;52.436;13.346;2022-07-23T01:13:35;23.10;67.90
15844;DHT22;50807;52.436;13.346;2022-07-23T01:14:11;23.10;67.90
15844;DHT22;50807;52.436;13.346;2022-07-23T01:14:44;23.10;67.90
15844;DHT22;50807;52.436;13.346;2022-07-23T01:15:15;23.10;67.90
15844;DHT22;50807;52.436;13.346;2022-07-23T01:15:46;23.10;67.90
15844;DHT22;50807;52.436;13.346;2022-07-23T01:16:17;23.10;67.90
15844;DHT22;50807;52.436;13.346;2022-07-23T01:16:49;23.10;67.80
15844;DHT22;50807;52.436;13.346;2022-07-23T01:17:20;23.10;67.90
15844;DHT22;50807;52.436;13.346;2022-07-23T01:17:51;23.10;67.80
15844;DHT22;50807;52.436;13.346;2022-07-23T01:18:22;23.10;67.90
15844;DHT22;50807;52.436;13.346;2022-07-23T01:18:53;23.10;67.80
15844;DHT22;50807;52.436;13.346;2022-07-23T01:19:24;23.10;67.80
15844;DHT22;50807;52.436;13.346;2022-07-23T01:19:56;23.10;67.80
15844;DHT22;50807;52.436;13.346;2022-07-23T01:20:26;23.10;67.80
15844;DHT22;50807;52.436;13.346;2022-07-23T01:20:57;23.10;67.80
15844;DHT22;50807;52.436;13.346;2022-07-23T01:21:30;23.00;67.70
15844;DHT22;50807;52.436;13.346;2022-07-23T01:22:03;23.00;67.70
15844;DHT22;50807;52.436;13.346;2022-07-23T01:22:35;23.00;67.70
15844;DHT22;50807;52.436;13.346;2022-07-23T01:23:07;23.00;67.70
15844;DHT22;50807;52.436;13.346;2022-07-23T01:23:38;23.00;67.70
15844;DHT22;50807;52.436;13.346;2022-07-23T01:24:09;23.00;67.70
15844;DHT22;50807;52.436;13.346;2022-07-23T01:24:41;23.00;67.70
15844;DHT22;50807;52.436;13.346;2022-07-23T01:25:13;23.00;67.70
15844;DHT22;50807;52.436;13.346;2022-07-23T01:25:48;23.00;67.80
15844;DHT22;50807;52.436;13.346;2022-07-23T01:26:20;23.00;67.80
15844;DHT22;50807;52.436;13.346;2022-07-23T01:26:50;23.00;67.80
15844;DHT22;50807;52.436;13.346;2022-07-23T01:27:21;22.90;67.70
15844;DHT22;50807;52.436;13.346;2022-07-23T01:27:52;22.90;67.70
15844;DHT22;50807;52.436;13.346;2022-07-23T01:28:25;22.90;67.70
15844;DHT22;50807;52.436;13.346;2022-07-23T01:28:55;22.90;67.70
15844;DHT22;50807;52.436;13.346;2022-07-23T01:29:26;22.90;67.80
15844;DHT22;50807;52.436;13.346;2022-07-23T01:30:00;22.90;67.70
15844;DHT22;50807;52.436;13.346;2022-07-23T01:30:31;22.90;67.80
15844;DHT22;50807;52.436;13.346;2022-07-23T01:31:02;22.90;67.80
15844;DHT22;50807;52.436;13.346;2022-07-23T01:31:34;22.90;67.80
15844;DHT22;50807;52.436;13.346;2022-07-23T01:32:05;22.90;67.80
15844;DHT22;50807;52.436;13.346;2022-07-23T01:32:36;22.90;67.80
15844;DHT22;50807;52.436;13.346;2022-07-23T01:33:08;22.90;67.80
15844;DHT22;50807;52.436;13.346;2022-07-23T01:33:39;22.90;67.90
15844;DHT22;50807;52.436;13.346;2022-07-23T01:34:10;22.80;67.80
15844;DHT22;50807;52.436;13.346;2022-07-23T01:34:42;22.80;67.90
15844;DHT22;50807;52.436;13.346;2022-07-23T01:35:12;22.80;67.90
15844;DHT22;50807;52.436;13.346;2022-07-23T01:35:43;22.80;67.90
15844;DHT22;50807;52.436;13.346;2022-07-23T01:36:15;22.80;67.90
15844;DHT22;50807;52.436;13.346;2022-07-23T01:36:46;22.80;67.90
15844;DHT22;50807;52.436;13.346;2022-07-23T01:37:17;22.80;67.90
15844;DHT22;50807;52.436;13.346;2022-07-23T01:37:50;22.80;67.90
15844;DHT22;50807;52.436;13.346;2022-07-23T01:38:21;22.80;68.00
15844;DHT22;50807;52.436;13.346;2022-07-23T01:38:52;22.80;68.00
15844;DHT22;50807;52.436;13.346;2022-07-23T01:39:24;22.80;68.00
15844;DHT22;50807;52.436;13.346;2022-07-23T01:39:54;22.70;68.00
15844;DHT22;50807;52.436;13.346;2022-07-23T01:40:25;22.70;68.10
15844;DHT22;50807;52.436;13.346;2022-07-23T01:40:57;22.70;68.10
15844;DHT22;50807;52.436;13.346;2022-07-23T01:41:27;22.70;68.10
15844;DHT22;50807;52.436;13.346;2022-07-23T01:41:58;22.70;68.10
15844;DHT22;50807;52.436;13.346;2022-07-23T01:42:30;22.70;68.10
15844;DHT22;50807;52.436;13.346;2022-07-23T01:43:01;22.70;68.10
15844;DHT22;50807;52.436;13.346;2022-07-23T01:43:33;22.70;68.20
15844;DHT22;50807;52.436;13.346;2022-07-23T01:44:03;22.70;68.20
15844;DHT22;50807;52.436;13.346;2022-07-23T01:44:34;22.70;68.30
15844;DHT22;50807;52.436;13.346;2022-07-23T01:45:07;22.70;68.30
15844;DHT22;50807;52.436;13.346;2022-07-23T01:45:38;22.70;68.30
15844;DHT22;50807;52.436;13.346;2022-07-23T01:46:10;22.70;68.30
15844;DHT22;50807;52.436;13.346;2022-07-23T01:46:41;22.70;68.30
15844;DHT22;50807;52.436;13.346;2022-07-23T01:47:12;22.70;68.40
15844;DHT22;50807;52.436;13.346;2022-07-23T01:47:42;22.60;68.30
15844;DHT22;50807;52.436;13.346;2022-07-23T01:48:14;22.60;68.40
15844;DHT22;50807;52.436;13.346;2022-07-23T01:48:46;22.60;69.10
15844;DHT22;50807;52.436;13.346;2022-07-23T01:49:17;22.60;68.40
15844;DHT22;50807;52.436;13.346;2022-07-23T01:49:49;22.60;68.50
15844;DHT22;50807;52.436;13.346;2022-07-23T01:50:20;22.60;68.50
15844;DHT22;50807;52.436;13.346;2022-07-23T01:50:51;22.60;68.50
15844;DHT22;50807;52.436;13.346;2022-07-23T01:51:22;22.60;68.50
15844;DHT22;50807;52.436;13.346;2022-07-23T01:51:53;22.60;68.50
15844;DHT22;50807;52.436;13.346;2022-07-23T01:52:30;22.60;68.60
15844;DHT22;50807;52.436;13.346;2022-07-23T01:53:03;22.60;68.60
15844;DHT22;50807;52.436;13.346;2022-07-23T01:53:34;22.60;68.60
15844;DHT22;50807;52.436;13.346;2022-07-23T01:54:04;22.60;68.60
15844;DHT22;50807;52.436;13.346;2022-07-23T01:54:37;22.60;68.70
15844;DHT22;50807;52.436;13.346;2022-07-23T01:55:09;22.60;68.70
15844;DHT22;50807;52.436;13.346;2022-07-23T01:55:39;22.60;68.70
15844;DHT22;50807;52.436;13.346;2022-07-23T01:56:11;22.60;68.70
15844;DHT22;50807;52.436;13.346;2022-07-23T01:56:42;22.60;68.80
15844;DHT22;50807;52.436;13.346;2022-07-23T01:57:13;22.60;68.80
15844;DHT22;50807;52.436;13.346;2022-07-23T01:57:43;22.60;68.80
15844;DHT22;50807;52.436;13.346;2022-07-23T01:58:15;22.60;68.80
15844;DHT22;50807;52.436;13.346;2022-07-23T01:58:46;22.60;68.80
15844;DHT22;50807;52.436;13.346;2022-07-23T01:59:17;22.60;68.90
15844;DHT22;50807;52.436;13.346;2022-07-23T01:59:49;22.60;68.90
15844;DHT22;50807;52.436;13.346;2022-07-23T02:00:19;22.60;68.90
15844;DHT22;50807;52.436;13.346;2022-07-23T02:00:50;22.60;68.90
15844;DHT22;50807;52.436;13.346;2022-07-23T02:01:22;22.60;68.90
15844;DHT22;50807;52.436;13.346;2022-07-23T02:01:53;22.60;69.00
15844;DHT22;50807;52.436;13.346;2022-07-23T02:02:24;22.60;69.00
15844;DHT22;50807;52.436;13.346;2022-07-23T02:02:55;22.60;69.00
15844;DHT22;50807;52.436;13.346;2022-07-23T02:03:28;22.60;69.00
15844;DHT22;50807;52.436;13.346;2022-07-23T02:03:59;22.60;69.00
15844;DHT22;50807;52.436;13.346;2022-07-23T02:04:30;22.60;69.00
15844;DHT22;50807;52.436;13.346;2022-07-23T02:05:01;22.60;69.00
15844;DHT22;50807;52.436;13.346;2022-07-23T02:05:33;22.60;69.00
15844;DHT22;50807;52.436;13.346;2022-07-23T02:06:03;22.60;69.00
15844;DHT22;50807;52.436;13.346;2022-07-23T02:06:34;22.60;69.10
15844;DHT22;50807;52.436;13.346;2022-07-23T02:07:05;22.60;69.00
15844;DHT22;50807;52.436;13.346;2022-07-23T02:07:37;22.60;69.00
15844;DHT22;50807;52.436;13.346;2022-07-23T02:08:09;22.60;69.10
15844;DHT22;50807;52.436;13.346;2022-07-23T02:08:40;22.60;69.10
15844;DHT22;50807;52.436;13.346;2022-07-23T02:09:11;22.60;69.10
15844;DHT22;50807;52.436;13.346;2022-07-23T02:09:42;22.60;69.10
15844;DHT22;50807;52.436;13.346;2022-07-23T02:10:13;22.60;69.10
15844;DHT22;50807;52.436;13.346;2022-07-23T02:10:45;22.60;69.10
15844;DHT22;50807;52.436;13.346;2022-07-23T02:11:16;22.60;69.10
15844;DHT22;50807;52.436;13.346;2022-07-23T02:11:47;22.60;69.10
15844;DHT22;50807;52.436;13.346;2022-07-23T02:12:18;22.60;69.10
15844;DHT22;50807;52.436;13.346;2022-07-23T02:12:49;22.60;69.10
15844;DHT22;50807;52.436;13.346;2022-07-23T02:13:20;22.60;69.20
15844;DHT22;50807;52.436;13.346;2022-07-23T02:13:51;22.60;69.20
15844;DHT22;50807;52.436;13.346;2022-07-23T02:14:23;22.60;69.20
15844;DHT22;50807;52.436;13.346;2022-07-23T02:14:53;22.60;69.20
15844;DHT22;50807;52.436;13.346;2022-07-23T02:15:24;22.60;69.20
15844;DHT22;50807;52.436;13.346;2022-07-23T02:15:56;22.60;69.20
15844;DHT22;50807;52.436;13.346;2022-07-23T02:16:27;22.60;69.30
15844;DHT22;50807;52.436;13.346;2022-07-23T02:16:58;22.60;69.30
15844;DHT22;50807;52.436;13.346;2022-07-23T02:17:29;22.60;69.30
15844;DHT22;50807;52.436;13.346;2022-07-23T02:18:00;22.60;69.30
15844;DHT22;50807;52.436;13.346;2022-07-23T02:18:31;22.60;69.30
15844;DHT22;50807;52.436;13.346;2022-07-23T02:19:03;22.60;69.30
15844;DHT22;50807;52.436;13.346;2022-07-23T02:19:34;22.60;69.30
15844;DHT22;50807;52.436;13.346;2022-07-23T02:20:06;22.60;69.30
15844;DHT22;50807;52.436;13.346;2022-07-23T02:20:40;22.60;69.30
15844;DHT22;50807;52.436;13.346;2022-07-23T02:21:12;22.60;69.30
15844;DHT22;50807;52.436;13.346;2022-07-23T02:21:43;22.60;69.30
15844;DHT22;50807;52.436;13.346;2022-07-23T02:22:15;22.60;69.30
15844;DHT22;50807;52.436;13.346;2022-07-23T02:22:46;22.60;69.40
15844;DHT22;50807;52.436;13.346;2022-07-23T02:23:18;22.60;69.40
15844;DHT22;50807;52.436;13.346;2022-07-23T02:23:49;22.60;69.40
15844;DHT22;50807;52.436;13.346;2022-07-23T02:24:20;22.60;69.40
15844;DHT22;50807;52.436;13.346;2022-07-23T02:24:52;22.60;69.30
15844;DHT22;50807;52.436;13.346;2022-07-23T02:25:23;22.60;69.40
15844;DHT22;50807;52.436;13.346;2022-07-23T02:25:54;22.60;69.50
15844;DHT22;50807;52.436;13.346;2022-07-23T02:26:25;22.60;69.40
15844;DHT22;50807;52.436;13.346;2022-07-23T02:26:56;22.60;69.40
15844;DHT22;50807;52.436;13.346;2022-07-23T02:27:27;22.60;69.40
15844;DHT22;50807;52.436;13.346;2022-07-23T02:27:58;22.60;69.40
15844;DHT22;50807;52.436;13.346;2022-07-23T02:28:30;22.60;69.50
15844;DHT22;50807;52.436;13.346;2022-07-23T02:29:01;22.60;69.40
15844;DHT22;50807;52.436;13.346;2022-07-23T02:29:32;22.60;69.50
15844;DHT22;50807;52.436;13.346;2022-07-23T02:30:05;22.60;69.50
15844;DHT22;50807;52.436;13.346;2022-07-23T02:30:37;22.60;69.50
15844;DHT22;50807;52.436;13.346;2022-07-23T02:31:08;22.60;69.50
15844;DHT22;50807;52.436;13.346;2022-07-23T02:31:40;22.60;69.40
15844;DHT22;50807;52.436;13.346;2022-07-23T02:32:11;22.60;69.50
15844;DHT22;50807;52.436;13.346;2022-07-23T02:32:41;22.60;69.40
15844;DHT22;50807;52.436;13.346;2022-07-23T02:33:13;22.60;69.50
15844;DHT22;50807;52.436;13.346;2022-07-23T02:33:44;22.60;69.50
15844;DHT22;50807;52.436;13.346;2022-07-23T02:34:15;22.60;69.50
15844;DHT22;50807;52.436;13.346;2022-07-23T02:34:46;22.60;69.50
15844;DHT22;50807;52.436;13.346;2022-07-23T02:35:17;22.60;69.50
15844;DHT22;50807;52.436;13.346;2022-07-23T02:35:48;22.60;69.50
15844;DHT22;50807;52.436;13.346;2022-07-23T02:36:19;22.60;69.60
15844;DHT22;50807;52.436;13.346;2022-07-23T02:36:51;22.60;69.50
15844;DHT22;50807;52.436;13.346;2022-07-23T02:37:22;22.60;69.50
15844;DHT22;50807;52.436;13.346;2022-07-23T02:37:52;22.60;69.50
15844;DHT22;50807;52.436;13.346;2022-07-23T02:38:26;22.60;69.50
15844;DHT22;50807;52.436;13.346;2022-07-23T02:38:56;22.60;69.60
15844;DHT22;50807;52.436;13.346;2022-07-23T02:39:27;22.60;69.60
15844;DHT22;50807;52.436;13.346;2022-07-23T02:39:59;22.60;69.60
15844;DHT22;50807;52.436;13.346;2022-07-23T02:40:30;22.60;69.60
15844;DHT22;50807;52.436;13.346;2022-07-23T02:41:01;22.60;69.60
15844;DHT22;50807;52.436;13.346;2022-07-23T02:41:32;22.60;69.60
15844;DHT22;50807;52.436;13.346;2022-07-23T02:42:03;22.50;69.50
15844;DHT22;50807;52.436;13.346;2022-07-23T02:42:34;22.60;69.60
15844;DHT22;50807;52.436;13.346;2022-07-23T02:43:05;22.60;69.60
15844;DHT22;50807;52.436;13.346;2022-07-23T02:43:37;22.50;69.60
15844;DHT22;50807;52.436;13.346;2022-07-23T02:44:07;22.60;69.60
15844;DHT22;50807;52.436;13.346;2022-07-23T02:44:38;22.50;69.60
15844;DHT22;50807;52.436;13.346;2022-07-23T02:45:09;22.60;69.60
15844;DHT22;50807;52.436;13.346;2022-07-23T02:45:41;22.60;69.70
15844;DHT22;50807;52.436;13.346;2022-07-23T02:46:12;22.60;69.70
15844;DHT22;50807;52.436;13.346;2022-07-23T02:46:43;22.60;70.40
15844;DHT22;50807;52.436;13.346;2022-07-23T02:47:14;22.60;69.70
15844;DHT22;50807;52.436;13.346;2022-07-23T02:47:45;22.50;69.70
15844;DHT22;50807;52.436;13.346;2022-07-23T02:48:16;22.60;69.70
15844;DHT22;50807;52.436;13.346;2022-07-23T02:48:47;22.50;69.70
15844;DHT22;50807;52.436;13.346;2022-07-23T02:49:19;22.60;69.80
15844;DHT22;50807;52.436;13.346;2022-07-23T02:49:50;22.50;69.70
15844;DHT22;50807;52.436;13.346;2022-07-23T02:50:21;22.50;69.70
15844;DHT22;50807;52.436;13.346;2022-07-23T02:50:53;22.50;69.70
15844;DHT22;50807;52.436;13.346;2022-07-23T02:51:26;22.50;69.70
15844;DHT22;50807;52.436;13.346;2022-07-23T02:51:57;22.50;69.70
15844;DHT22;50807;52.436;13.346;2022-07-23T02:52:28;22.50;69.70
15844;DHT22;50807;52.436;13.346;2022-07-23T02:52:59;22.50;69.80
15844;DHT22;50807;52.436;13.346;2022-07-23T02:53:31;22.50;69.70
15844;DHT22;50807;52.436;13.346;2022-07-23T02:54:03;22.50;69.80
15844;DHT22;50807;52.436;13.346;2022-07-23T02:54:34;22.50;69.80
15844;DHT22;50807;52.436;13.346;2022-07-23T02:55:06;22.50;69.80
15844;DHT22;50807;52.436;13.346;2022-07-23T02:55:37;22.50;69.80
15844;DHT22;50807;52.436;13.346;2022-07-23T02:56:09;22.50;69.80
15844;DHT22;50807;52.436;13.346;2022-07-23T02:56:40;22.50;69.80
15844;DHT22;50807;52.436;13.346;2022-07-23T02:57:10;22.50;69.80
15844;DHT22;50807;52.436;13.346;2022-07-23T02:57:42;22.50;69.80
15844;DHT22;50807;52.436;13.346;2022-07-23T02:58:13;22.50;69.80
15844;DHT22;50807;52.436;13.346;2022-07-23T02:58:44;22.50;69.90
15844;DHT22;50807;52.436;13.346;2022-07-23T02:59:15;22.50;69.90
15844;DHT22;50807;52.436;13.346;2022-07-23T02:59:46;22.50;69.90
15844;DHT22;50807;52.436;13.346;2022-07-23T03:00:17;22.50;69.90
15844;DHT22;50807;52.436;13.346;2022-07-23T03:00:48;22.50;70.00
15844;DHT22;50807;52.436;13.346;2022-07-23T03:01:19;22.50;70.00
15844;DHT22;50807;52.436;13.346;2022-07-23T03:01:50;22.50;70.00
15844;DHT22;50807;52.436;13.346;2022-07-23T03:02:22;22.50;70.00
15844;DHT22;50807;52.436;13.346;2022-07-23T03:02:53;22.40;69.90
15844;DHT22;50807;52.436;13.346;2022-07-23T03:03:24;22.40;69.90
15844;DHT22;50807;52.436;13.346;2022-07-23T03:03:56;22.50;70.00
15844;DHT22;50807;52.436;13.346;2022-07-23T03:04:27;22.40;69.90
15844;DHT22;50807;52.436;13.346;2022-07-23T03:04:57;22.50;70.00
15844;DHT22;50807;52.436;13.346;2022-07-23T03:05:29;22.40;69.80
15844;DHT22;50807;52.436;13.346;2022-07-23T03:06:00;22.40;69.80
15844;DHT22;50807;52.436;13.346;2022-07-23T03:06:31;22.40;69.80
15844;DHT22;50807;52.436;13.346;2022-07-23T03:07:02;22.40;69.80
15844;DHT22;50807;52.436;13.346;2022-07-23T03:07:33;22.40;69.80
15844;DHT22;50807;52.436;13.346;2022-07-23T03:08:04;22.40;69.80
15844;DHT22;50807;52.436;13.346;2022-07-23T03:08:37;22.40;69.80
15844;DHT22;50807;52.436;13.346;2022-07-23T03:09:08;22.40;69.80
15844;DHT22;50807;52.436;13.346;2022-07-23T03:09:39;22.40;69.80
15844;DHT22;50807;52.436;13.346;2022-07-23T03:10:09;22.40;69.80
15844;DHT22;50807;52.436;13.346;2022-07-23T03:10:41;22.40;69.80
15844;DHT22;50807;52.436;13.346;2022-07-23T03:11:12;22.40;69.80
15844;DHT22;50807;52.436;13.346;2022-07-23T03:11:43;22.40;69.80
15844;DHT22;50807;52.436;13.346;2022-07-23T03:12:14;22.40;69.80
15844;DHT22;50807;52.436;13.346;2022-07-23T03:12:45;22.40;69.80
15844;DHT22;50807;52.436;13.346;2022-07-23T03:13:16;22.40;69.80
15844;DHT22;50807;52.436;13.346;2022-07-23T03:13:48;22.40;69.80
15844;DHT22;50807;52.436;13.346;2022-07-23T03:14:19;22.40;69.80
15844;DHT22;50807;52.436;13.346;2022-07-23T03:14:49;22.40;69.90
15844;DHT22;50807;52.436;13.346;2022-07-23T03:15:21;22.40;69.90
15844;DHT22;50807;52.436;13.346;2022-07-23T03:15:52;22.40;69.90